Friday, February 23, 2018, 8:11 PM GMT
Back to Local

CWEP, East Point, P. E. I

Location: , , Canada Lat: 46.45
Local Time: 8:11 PM GMT (20:11 GMT) Lon: -61.967
Time Zone: GMT Elev: 36 ft

Show me the last for .
Show Coded

Time T Td Feel RH Dir Speed Gust Alt SLP Vis Weather Sky Remarks
2018-02-23 19:00 22 15 11 72 310° 10 - - 30.55 0 Peak wind: 19 mph (17 kts) from 290° at 12 min
2018-02-23 18:00 22 13 9 67 300° 15 - - 30.60 0 None
2018-02-23 17:00 22 11 9 64 300° 13 - - 30.61 0 None
2018-02-23 16:00 22 7 10 53 300° 12 - - 30.64 0 None
2018-02-23 15:00 21 11 9 66 300° 12 - - 30.66 0 None
2018-02-23 14:00 20 11 9 65 310° 10 - - 30.67 0 None
2018-02-23 13:00 19 10 7 65 320° 12 - - 30.66 0 None
2018-02-23 12:00 19 11 8 70 330° 9 - - 30.67 0 None
2018-02-23 11:00 18 12 5 75 320° 12 - - 30.65 0 Peak wind: 20 mph (18 kts) from 320° at 02 min
2018-02-23 10:00 18 11 4 74 330° 15 - - 30.65 0 Peak wind: 23 mph (20 kts) from 320° at 09 min
2018-02-23 09:00 18 10 2 70 320° 18 - - 30.65 0 Peak wind: 28 mph (25 kts) from 320° at 08 min
2018-02-23 08:00 19 10 1 68 320° 21 26 - 30.63 0 Peak wind: 27 mph (24 kts) from 330° at 40 min
2018-02-23 07:00 21 15 7 76 340° 16 - - 30.62 0 Peak wind: 19 mph (17 kts) from 340° at 46 min
2018-02-23 06:00 20 16 8 81 350° 13 - - 30.61 0 Peak wind: 20 mph (18 kts) from 0° at 16 min
2018-02-23 05:00 21 16 7 83 360° 15 - - 30.58 0 Peak wind: 25 mph (22 kts) from 320° at 25 min
2018-02-23 04:00 22 16 8 76 290° 17 - - 30.56 0 Peak wind: 20 mph (18 kts) from 290° at 55 min
2018-02-23 03:00 22 17 11 80 270° 9 - - 30.55 0 None
2018-02-23 02:00 21 16 9 81 290° 12 - - 30.56 0 None
2018-02-23 01:00 21 15 9 77 290° 12 - - 30.56 0 None
2018-02-23 00:00 20 15 8 77 300° 13 - - 30.56 0 None
2018-02-22 23:00 20 15 8 81 310° 12 - - 30.56 0 Peak wind: 19 mph (17 kts) from 290° at 21 min
2018-02-22 22:00 19 14 4 79 300° 12 18 - 30.56 0 None
2018-02-22 21:00 18 11 4 74 310° 14 - - 30.55 0 Peak wind: 19 mph (17 kts) from 310° at 00 min

Support USWX by starting your Amazon purchase here.